sensor_id;sensor_type;location;lat;lon;timestamp;P1;durP1;ratioP1;P2;durP2;ratioP2
15155;SDS011;7678;50.058;8.306;2023-08-31T00:00:50;5.30;;;4.20;;
15155;SDS011;7678;50.058;8.306;2023-08-31T00:03:18;5.23;;;4.07;;
15155;SDS011;7678;50.058;8.306;2023-08-31T00:05:48;5.20;;;4.10;;
15155;SDS011;7678;50.058;8.306;2023-08-31T00:08:18;5.17;;;3.97;;
15155;SDS011;7678;50.058;8.306;2023-08-31T00:10:54;6.80;;;3.80;;
15155;SDS011;7678;50.058;8.306;2023-08-31T00:13:23;5.63;;;4.47;;
15155;SDS011;7678;50.058;8.306;2023-08-31T00:15:54;6.53;;;4.43;;
15155;SDS011;7678;50.058;8.306;2023-08-31T00:18:23;5.80;;;4.37;;
15155;SDS011;7678;50.058;8.306;2023-08-31T00:20:54;7.33;;;4.63;;
15155;SDS011;7678;50.058;8.306;2023-08-31T00:23:22;6.23;;;4.77;;
15155;SDS011;7678;50.058;8.306;2023-08-31T00:25:50;5.27;;;4.77;;
15155;SDS011;7678;50.058;8.306;2023-08-31T00:28:20;9.20;;;4.80;;
15155;SDS011;7678;50.058;8.306;2023-08-31T00:30:48;6.90;;;4.57;;
15155;SDS011;7678;50.058;8.306;2023-08-31T00:33:16;8.27;;;5.10;;
15155;SDS011;7678;50.058;8.306;2023-08-31T00:35:44;4.53;;;4.13;;
15155;SDS011;7678;50.058;8.306;2023-08-31T00:38:14;6.83;;;4.90;;
15155;SDS011;7678;50.058;8.306;2023-08-31T00:40:42;6.90;;;4.77;;
15155;SDS011;7678;50.058;8.306;2023-08-31T00:43:13;6.73;;;4.80;;
15155;SDS011;7678;50.058;8.306;2023-08-31T00:45:43;6.47;;;4.80;;
15155;SDS011;7678;50.058;8.306;2023-08-31T00:48:12;6.23;;;4.67;;
15155;SDS011;7678;50.058;8.306;2023-08-31T00:50:43;6.87;;;4.90;;
15155;SDS011;7678;50.058;8.306;2023-08-31T00:53:14;4.43;;;4.03;;
15155;SDS011;7678;50.058;8.306;2023-08-31T00:55:43;7.97;;;4.50;;
15155;SDS011;7678;50.058;8.306;2023-08-31T00:58:14;6.53;;;4.97;;
15155;SDS011;7678;50.058;8.306;2023-08-31T01:00:43;6.67;;;4.73;;
15155;SDS011;7678;50.058;8.306;2023-08-31T01:03:26;5.83;;;5.00;;
15155;SDS011;7678;50.058;8.306;2023-08-31T01:06:02;6.43;;;5.13;;
15155;SDS011;7678;50.058;8.306;2023-08-31T01:08:40;5.87;;;4.80;;
15155;SDS011;7678;50.058;8.306;2023-08-31T01:11:16;7.23;;;5.13;;
15155;SDS011;7678;50.058;8.306;2023-08-31T01:13:51;6.30;;;5.57;;
15155;SDS011;7678;50.058;8.306;2023-08-31T01:16:21;6.63;;;5.70;;
15155;SDS011;7678;50.058;8.306;2023-08-31T01:18:51;7.73;;;5.90;;
15155;SDS011;7678;50.058;8.306;2023-08-31T01:21:22;6.60;;;5.90;;
15155;SDS011;7678;50.058;8.306;2023-08-31T01:23:56;8.47;;;6.17;;
15155;SDS011;7678;50.058;8.306;2023-08-31T01:26:25;7.97;;;5.70;;
15155;SDS011;7678;50.058;8.306;2023-08-31T01:28:54;6.70;;;5.53;;
15155;SDS011;7678;50.058;8.306;2023-08-31T01:31:23;10.40;;;6.23;;
15155;SDS011;7678;50.058;8.306;2023-08-31T01:33:51;10.07;;;5.73;;
15155;SDS011;7678;50.058;8.306;2023-08-31T01:36:20;8.00;;;5.60;;
15155;SDS011;7678;50.058;8.306;2023-08-31T01:38:55;7.63;;;5.27;;
15155;SDS011;7678;50.058;8.306;2023-08-31T01:41:30;7.73;;;5.50;;
15155;SDS011;7678;50.058;8.306;2023-08-31T01:44:01;8.17;;;5.93;;
15155;SDS011;7678;50.058;8.306;2023-08-31T01:46:32;7.53;;;5.57;;
15155;SDS011;7678;50.058;8.306;2023-08-31T01:49:00;8.40;;;5.83;;
15155;SDS011;7678;50.058;8.306;2023-08-31T01:51:32;6.47;;;5.40;;
15155;SDS011;7678;50.058;8.306;2023-08-31T01:54:02;9.47;;;5.63;;
15155;SDS011;7678;50.058;8.306;2023-08-31T01:56:31;5.50;;;4.87;;
15155;SDS011;7678;50.058;8.306;2023-08-31T01:58:59;10.83;;;5.80;;
15155;SDS011;7678;50.058;8.306;2023-08-31T02:01:27;7.57;;;5.60;;
15155;SDS011;7678;50.058;8.306;2023-08-31T02:03:55;6.80;;;5.37;;
15155;SDS011;7678;50.058;8.306;2023-08-31T02:06:24;10.23;;;5.23;;
15155;SDS011;7678;50.058;8.306;2023-08-31T02:08:52;9.93;;;6.40;;
15155;SDS011;7678;50.058;8.306;2023-08-31T02:11:21;7.07;;;5.30;;
15155;SDS011;7678;50.058;8.306;2023-08-31T02:13:49;7.07;;;5.03;;
15155;SDS011;7678;50.058;8.306;2023-08-31T02:16:17;8.93;;;5.20;;
15155;SDS011;7678;50.058;8.306;2023-08-31T02:18:46;9.60;;;5.03;;
15155;SDS011;7678;50.058;8.306;2023-08-31T02:21:16;10.13;;;5.87;;
15155;SDS011;7678;50.058;8.306;2023-08-31T02:23:46;6.33;;;5.10;;
15155;SDS011;7678;50.058;8.306;2023-08-31T02:26:14;5.67;;;5.07;;
15155;SDS011;7678;50.058;8.306;2023-08-31T02:28:46;6.47;;;4.80;;
15155;SDS011;7678;50.058;8.306;2023-08-31T02:31:16;10.80;;;5.30;;
15155;SDS011;7678;50.058;8.306;2023-08-31T02:33:45;11.70;;;5.40;;
15155;SDS011;7678;50.058;8.306;2023-08-31T02:36:14;6.83;;;5.10;;
15155;SDS011;7678;50.058;8.306;2023-08-31T02:38:42;8.93;;;4.90;;
15155;SDS011;7678;50.058;8.306;2023-08-31T02:41:10;10.63;;;5.40;;
15155;SDS011;7678;50.058;8.306;2023-08-31T02:43:39;10.43;;;6.00;;
15155;SDS011;7678;50.058;8.306;2023-08-31T02:46:08;6.70;;;5.57;;
15155;SDS011;7678;50.058;8.306;2023-08-31T02:48:36;6.40;;;5.17;;
15155;SDS011;7678;50.058;8.306;2023-08-31T02:51:05;6.60;;;5.57;;
15155;SDS011;7678;50.058;8.306;2023-08-31T02:53:33;6.57;;;5.50;;
15155;SDS011;7678;50.058;8.306;2023-08-31T02:56:01;12.87;;;5.50;;
15155;SDS011;7678;50.058;8.306;2023-08-31T02:58:30;8.23;;;5.40;;
15155;SDS011;7678;50.058;8.306;2023-08-31T03:01:05;6.33;;;5.23;;
15155;SDS011;7678;50.058;8.306;2023-08-31T03:03:39;7.63;;;5.63;;
15155;SDS011;7678;50.058;8.306;2023-08-31T03:06:07;6.07;;;5.47;;
15155;SDS011;7678;50.058;8.306;2023-08-31T03:08:36;7.23;;;6.37;;
15155;SDS011;7678;50.058;8.306;2023-08-31T03:11:05;8.00;;;5.67;;
15155;SDS011;7678;50.058;8.306;2023-08-31T03:13:34;6.60;;;6.00;;
15155;SDS011;7678;50.058;8.306;2023-08-31T03:16:02;10.00;;;6.30;;
15155;SDS011;7678;50.058;8.306;2023-08-31T03:18:31;8.73;;;6.77;;
15155;SDS011;7678;50.058;8.306;2023-08-31T03:20:59;6.70;;;6.10;;
15155;SDS011;7678;50.058;8.306;2023-08-31T03:23:29;7.40;;;5.90;;
15155;SDS011;7678;50.058;8.306;2023-08-31T03:25:57;7.70;;;6.30;;
15155;SDS011;7678;50.058;8.306;2023-08-31T03:28:25;7.43;;;6.63;;
15155;SDS011;7678;50.058;8.306;2023-08-31T03:30:56;11.13;;;5.73;;
15155;SDS011;7678;50.058;8.306;2023-08-31T03:33:25;7.20;;;6.50;;
15155;SDS011;7678;50.058;8.306;2023-08-31T03:35:55;10.13;;;7.53;;
15155;SDS011;7678;50.058;8.306;2023-08-31T03:38:31;11.17;;;7.17;;
15155;SDS011;7678;50.058;8.306;2023-08-31T03:41:05;11.13;;;7.17;;
15155;SDS011;7678;50.058;8.306;2023-08-31T03:43:33;9.40;;;7.10;;
15155;SDS011;7678;50.058;8.306;2023-08-31T03:46:01;8.87;;;6.50;;
15155;SDS011;7678;50.058;8.306;2023-08-31T03:48:30;10.53;;;6.60;;
15155;SDS011;7678;50.058;8.306;2023-08-31T03:50:59;12.97;;;6.43;;
15155;SDS011;7678;50.058;8.306;2023-08-31T03:53:27;8.97;;;6.23;;
15155;SDS011;7678;50.058;8.306;2023-08-31T03:55:56;10.40;;;7.20;;
15155;SDS011;7678;50.058;8.306;2023-08-31T03:58:24;11.50;;;6.20;;
15155;SDS011;7678;50.058;8.306;2023-08-31T04:00:52;9.57;;;7.50;;
15155;SDS011;7678;50.058;8.306;2023-08-31T04:03:20;16.27;;;7.77;;
15155;SDS011;7678;50.058;8.306;2023-08-31T04:05:53;9.30;;;6.00;;
15155;SDS011;7678;50.058;8.306;2023-08-31T04:08:23;11.47;;;7.03;;
15155;SDS011;7678;50.058;8.306;2023-08-31T04:10:51;15.23;;;7.70;;
15155;SDS011;7678;50.058;8.306;2023-08-31T04:13:19;9.37;;;6.03;;
15155;SDS011;7678;50.058;8.306;2023-08-31T04:15:47;17.73;;;7.30;;
15155;SDS011;7678;50.058;8.306;2023-08-31T04:18:15;10.70;;;6.33;;
15155;SDS011;7678;50.058;8.306;2023-08-31T04:20:48;9.73;;;6.27;;
15155;SDS011;7678;50.058;8.306;2023-08-31T04:23:20;11.87;;;6.30;;
15155;SDS011;7678;50.058;8.306;2023-08-31T04:25:53;12.53;;;7.00;;
15155;SDS011;7678;50.058;8.306;2023-08-31T04:28:24;10.60;;;6.27;;
15155;SDS011;7678;50.058;8.306;2023-08-31T04:30:52;10.10;;;6.07;;
15155;SDS011;7678;50.058;8.306;2023-08-31T04:33:20;10.13;;;6.90;;
15155;SDS011;7678;50.058;8.306;2023-08-31T04:35:48;7.43;;;5.87;;
15155;SDS011;7678;50.058;8.306;2023-08-31T04:38:16;11.17;;;7.27;;
15155;SDS011;7678;50.058;8.306;2023-08-31T04:40:46;10.83;;;6.00;;
15155;SDS011;7678;50.058;8.306;2023-08-31T04:43:16;7.50;;;6.17;;
15155;SDS011;7678;50.058;8.306;2023-08-31T04:45:45;8.63;;;6.33;;
15155;SDS011;7678;50.058;8.306;2023-08-31T04:48:14;8.00;;;6.77;;
15155;SDS011;7678;50.058;8.306;2023-08-31T04:50:45;7.60;;;6.00;;
15155;SDS011;7678;50.058;8.306;2023-08-31T04:53:13;9.03;;;6.23;;
15155;SDS011;7678;50.058;8.306;2023-08-31T04:55:41;12.87;;;6.90;;
15155;SDS011;7678;50.058;8.306;2023-08-31T04:58:10;7.97;;;7.17;;
15155;SDS011;7678;50.058;8.306;2023-08-31T05:00:40;7.57;;;6.83;;
15155;SDS011;7678;50.058;8.306;2023-08-31T05:03:08;11.93;;;7.07;;
15155;SDS011;7678;50.058;8.306;2023-08-31T05:05:36;10.17;;;6.63;;
15155;SDS011;7678;50.058;8.306;2023-08-31T05:08:05;9.27;;;7.10;;
15155;SDS011;7678;50.058;8.306;2023-08-31T05:10:33;9.47;;;7.30;;
15155;SDS011;7678;50.058;8.306;2023-08-31T05:13:01;10.20;;;7.07;;
15155;SDS011;7678;50.058;8.306;2023-08-31T05:15:30;11.17;;;6.90;;
15155;SDS011;7678;50.058;8.306;2023-08-31T05:18:01;10.07;;;7.53;;
15155;SDS011;7678;50.058;8.306;2023-08-31T05:20:30;9.63;;;6.80;;
15155;SDS011;7678;50.058;8.306;2023-08-31T05:22:59;9.70;;;7.33;;
15155;SDS011;7678;50.058;8.306;2023-08-31T05:25:28;10.10;;;6.87;;
15155;SDS011;7678;50.058;8.306;2023-08-31T05:27:56;9.43;;;7.47;;
15155;SDS011;7678;50.058;8.306;2023-08-31T05:30:24;12.07;;;7.00;;
15155;SDS011;7678;50.058;8.306;2023-08-31T05:32:54;9.67;;;6.73;;
15155;SDS011;7678;50.058;8.306;2023-08-31T05:35:23;7.83;;;6.33;;
15155;SDS011;7678;50.058;8.306;2023-08-31T05:37:52;11.77;;;6.40;;
15155;SDS011;7678;50.058;8.306;2023-08-31T05:40:21;10.50;;;6.30;;
15155;SDS011;7678;50.058;8.306;2023-08-31T05:42:49;8.30;;;6.40;;
15155;SDS011;7678;50.058;8.306;2023-08-31T05:45:17;6.50;;;5.80;;
15155;SDS011;7678;50.058;8.306;2023-08-31T05:47:45;11.27;;;7.40;;
15155;SDS011;7678;50.058;8.306;2023-08-31T05:50:13;9.07;;;6.53;;
15155;SDS011;7678;50.058;8.306;2023-08-31T05:52:43;7.13;;;6.00;;
15155;SDS011;7678;50.058;8.306;2023-08-31T05:55:11;7.97;;;6.13;;
15155;SDS011;7678;50.058;8.306;2023-08-31T05:57:39;8.33;;;6.20;;
15155;SDS011;7678;50.058;8.306;2023-08-31T06:00:07;10.03;;;6.90;;
15155;SDS011;7678;50.058;8.306;2023-08-31T06:02:36;6.67;;;5.33;;
15155;SDS011;7678;50.058;8.306;2023-08-31T06:05:05;11.07;;;6.53;;
15155;SDS011;7678;50.058;8.306;2023-08-31T06:07:33;8.07;;;5.13;;
15155;SDS011;7678;50.058;8.306;2023-08-31T06:10:03;7.63;;;5.33;;
15155;SDS011;7678;50.058;8.306;2023-08-31T06:12:32;21.73;;;5.10;;
15155;SDS011;7678;50.058;8.306;2023-08-31T06:15:00;5.87;;;4.60;;
15155;SDS011;7678;50.058;8.306;2023-08-31T06:17:29;7.60;;;4.50;;
15155;SDS011;7678;50.058;8.306;2023-08-31T06:19:57;7.90;;;4.53;;
15155;SDS011;7678;50.058;8.306;2023-08-31T06:22:25;7.77;;;4.33;;
15155;SDS011;7678;50.058;8.306;2023-08-31T06:24:53;6.17;;;4.30;;
15155;SDS011;7678;50.058;8.306;2023-08-31T06:27:24;7.57;;;4.20;;
15155;SDS011;7678;50.058;8.306;2023-08-31T06:29:53;9.20;;;4.33;;
15155;SDS011;7678;50.058;8.306;2023-08-31T06:32:22;6.47;;;4.10;;
15155;SDS011;7678;50.058;8.306;2023-08-31T06:34:53;6.50;;;4.03;;
15155;SDS011;7678;50.058;8.306;2023-08-31T06:37:21;5.80;;;4.13;;
15155;SDS011;7678;50.058;8.306;2023-08-31T06:39:49;8.50;;;4.47;;
15155;SDS011;7678;50.058;8.306;2023-08-31T06:42:18;7.20;;;4.20;;
15155;SDS011;7678;50.058;8.306;2023-08-31T06:44:47;8.23;;;4.10;;
15155;SDS011;7678;50.058;8.306;2023-08-31T06:47:15;6.97;;;3.67;;
15155;SDS011;7678;50.058;8.306;2023-08-31T06:49:46;5.57;;;3.87;;
15155;SDS011;7678;50.058;8.306;2023-08-31T06:52:14;10.53;;;4.13;;
15155;SDS011;7678;50.058;8.306;2023-08-31T06:54:57;9.17;;;3.90;;
15155;SDS011;7678;50.058;8.306;2023-08-31T06:57:26;4.97;;;3.73;;
15155;SDS011;7678;50.058;8.306;2023-08-31T06:59:56;7.23;;;3.60;;
15155;SDS011;7678;50.058;8.306;2023-08-31T07:02:25;6.57;;;3.67;;
15155;SDS011;7678;50.058;8.306;2023-08-31T07:04:54;5.70;;;3.30;;
15155;SDS011;7678;50.058;8.306;2023-08-31T07:07:22;5.57;;;3.17;;
15155;SDS011;7678;50.058;8.306;2023-08-31T07:09:50;7.60;;;2.80;;
15155;SDS011;7678;50.058;8.306;2023-08-31T07:12:21;7.20;;;3.10;;
15155;SDS011;7678;50.058;8.306;2023-08-31T07:14:49;6.50;;;3.00;;
15155;SDS011;7678;50.058;8.306;2023-08-31T07:17:19;6.90;;;2.90;;
15155;SDS011;7678;50.058;8.306;2023-08-31T07:19:49;8.00;;;2.70;;
15155;SDS011;7678;50.058;8.306;2023-08-31T07:22:17;5.90;;;3.20;;
15155;SDS011;7678;50.058;8.306;2023-08-31T07:24:45;7.13;;;3.10;;
15155;SDS011;7678;50.058;8.306;2023-08-31T07:27:13;6.73;;;2.80;;
15155;SDS011;7678;50.058;8.306;2023-08-31T07:29:41;5.97;;;3.17;;
15155;SDS011;7678;50.058;8.306;2023-08-31T07:32:09;5.77;;;2.70;;
15155;SDS011;7678;50.058;8.306;2023-08-31T07:34:40;7.83;;;2.57;;
15155;SDS011;7678;50.058;8.306;2023-08-31T07:37:08;6.90;;;2.57;;
15155;SDS011;7678;50.058;8.306;2023-08-31T07:39:36;5.10;;;2.47;;
15155;SDS011;7678;50.058;8.306;2023-08-31T07:42:05;5.87;;;2.50;;
15155;SDS011;7678;50.058;8.306;2023-08-31T07:44:34;3.43;;;2.37;;
15155;SDS011;7678;50.058;8.306;2023-08-31T07:47:02;4.93;;;2.70;;
15155;SDS011;7678;50.058;8.306;2023-08-31T07:49:30;7.90;;;2.60;;
15155;SDS011;7678;50.058;8.306;2023-08-31T07:51:59;6.37;;;2.80;;
15155;SDS011;7678;50.058;8.306;2023-08-31T07:54:30;8.23;;;2.77;;
15155;SDS011;7678;50.058;8.306;2023-08-31T07:56:58;5.67;;;2.67;;
15155;SDS011;7678;50.058;8.306;2023-08-31T07:59:27;6.00;;;2.73;;
15155;SDS011;7678;50.058;8.306;2023-08-31T08:01:55;4.53;;;2.50;;
15155;SDS011;7678;50.058;8.306;2023-08-31T08:04:23;4.60;;;2.20;;
15155;SDS011;7678;50.058;8.306;2023-08-31T08:06:53;7.63;;;2.93;;
15155;SDS011;7678;50.058;8.306;2023-08-31T08:09:22;7.70;;;3.00;;
15155;SDS011;7678;50.058;8.306;2023-08-31T08:11:50;8.67;;;3.10;;
15155;SDS011;7678;50.058;8.306;2023-08-31T08:14:19;6.73;;;2.70;;
15155;SDS011;7678;50.058;8.306;2023-08-31T08:16:47;10.00;;;2.30;;
15155;SDS011;7678;50.058;8.306;2023-08-31T08:19:20;6.03;;;2.40;;
15155;SDS011;7678;50.058;8.306;2023-08-31T08:21:48;7.40;;;2.53;;
15155;SDS011;7678;50.058;8.306;2023-08-31T08:24:16;5.13;;;2.30;;
15155;SDS011;7678;50.058;8.306;2023-08-31T08:26:47;6.93;;;2.63;;
15155;SDS011;7678;50.058;8.306;2023-08-31T08:29:15;6.70;;;2.23;;
15155;SDS011;7678;50.058;8.306;2023-08-31T08:31:44;5.53;;;2.37;;
15155;SDS011;7678;50.058;8.306;2023-08-31T08:34:15;9.47;;;2.50;;
15155;SDS011;7678;50.058;8.306;2023-08-31T08:36:43;5.47;;;2.40;;
15155;SDS011;7678;50.058;8.306;2023-08-31T08:39:11;6.13;;;2.30;;
15155;SDS011;7678;50.058;8.306;2023-08-31T08:41:39;7.70;;;2.20;;
15155;SDS011;7678;50.058;8.306;2023-08-31T08:44:09;6.57;;;2.10;;
15155;SDS011;7678;50.058;8.306;2023-08-31T08:46:38;3.40;;;1.80;;
15155;SDS011;7678;50.058;8.306;2023-08-31T08:49:06;8.57;;;2.30;;
15155;SDS011;7678;50.058;8.306;2023-08-31T08:51:36;4.40;;;2.20;;
15155;SDS011;7678;50.058;8.306;2023-08-31T08:54:05;7.83;;;2.73;;
15155;SDS011;7678;50.058;8.306;2023-08-31T08:56:33;3.83;;;1.80;;
15155;SDS011;7678;50.058;8.306;2023-08-31T08:59:01;10.43;;;2.13;;
15155;SDS011;7678;50.058;8.306;2023-08-31T09:01:31;6.23;;;2.17;;
15155;SDS011;7678;50.058;8.306;2023-08-31T09:04:02;6.33;;;2.70;;
15155;SDS011;7678;50.058;8.306;2023-08-31T09:06:31;4.60;;;2.30;;
15155;SDS011;7678;50.058;8.306;2023-08-31T09:08:59;7.47;;;2.77;;
15155;SDS011;7678;50.058;8.306;2023-08-31T09:11:27;8.17;;;2.50;;
15155;SDS011;7678;50.058;8.306;2023-08-31T09:13:56;6.63;;;2.37;;
15155;SDS011;7678;50.058;8.306;2023-08-31T09:16:25;4.60;;;2.10;;
15155;SDS011;7678;50.058;8.306;2023-08-31T09:18:58;6.73;;;2.20;;
15155;SDS011;7678;50.058;8.306;2023-08-31T09:21:34;5.50;;;2.30;;
15155;SDS011;7678;50.058;8.306;2023-08-31T09:24:04;6.30;;;2.10;;
15155;SDS011;7678;50.058;8.306;2023-08-31T09:26:36;4.43;;;2.07;;
15155;SDS011;7678;50.058;8.306;2023-08-31T09:29:05;4.23;;;2.03;;
15155;SDS011;7678;50.058;8.306;2023-08-31T09:31:33;7.73;;;2.53;;
15155;SDS011;7678;50.058;8.306;2023-08-31T09:34:03;7.10;;;2.23;;
15155;SDS011;7678;50.058;8.306;2023-08-31T09:36:31;7.10;;;2.00;;
15155;SDS011;7678;50.058;8.306;2023-08-31T09:38:59;5.00;;;1.63;;
15155;SDS011;7678;50.058;8.306;2023-08-31T09:41:27;7.60;;;2.77;;
15155;SDS011;7678;50.058;8.306;2023-08-31T09:43:55;6.67;;;2.10;;
15155;SDS011;7678;50.058;8.306;2023-08-31T09:46:27;5.47;;;2.00;;
15155;SDS011;7678;50.058;8.306;2023-08-31T09:48:55;9.10;;;2.33;;
15155;SDS011;7678;50.058;8.306;2023-08-31T09:51:29;5.67;;;2.03;;
15155;SDS011;7678;50.058;8.306;2023-08-31T09:53:57;6.83;;;2.57;;
15155;SDS011;7678;50.058;8.306;2023-08-31T09:56:27;5.80;;;2.17;;
15155;SDS011;7678;50.058;8.306;2023-08-31T09:58:59;5.90;;;2.20;;
15155;SDS011;7678;50.058;8.306;2023-08-31T10:01:29;6.37;;;2.17;;
15155;SDS011;7678;50.058;8.306;2023-08-31T10:04:00;6.83;;;2.00;;
15155;SDS011;7678;50.058;8.306;2023-08-31T10:06:31;4.77;;;2.10;;
15155;SDS011;7678;50.058;8.306;2023-08-31T10:09:03;4.57;;;1.83;;
15155;SDS011;7678;50.058;8.306;2023-08-31T10:11:32;5.50;;;2.10;;
15155;SDS011;7678;50.058;8.306;2023-08-31T10:14:01;5.07;;;2.37;;
15155;SDS011;7678;50.058;8.306;2023-08-31T10:16:31;4.97;;;2.10;;
15155;SDS011;7678;50.058;8.306;2023-08-31T10:18:59;5.10;;;2.20;;
15155;SDS011;7678;50.058;8.306;2023-08-31T10:21:31;6.53;;;2.10;;
15155;SDS011;7678;50.058;8.306;2023-08-31T10:24:02;4.13;;;1.90;;
15155;SDS011;7678;50.058;8.306;2023-08-31T10:26:31;3.30;;;1.73;;
15155;SDS011;7678;50.058;8.306;2023-08-31T10:28:59;7.33;;;2.10;;
15155;SDS011;7678;50.058;8.306;2023-08-31T10:31:32;2.97;;;1.80;;
15155;SDS011;7678;50.058;8.306;2023-08-31T10:34:01;5.87;;;2.00;;
15155;SDS011;7678;50.058;8.306;2023-08-31T10:36:38;6.30;;;2.00;;
15155;SDS011;7678;50.058;8.306;2023-08-31T10:39:13;4.20;;;1.53;;
15155;SDS011;7678;50.058;8.306;2023-08-31T10:41:51;3.40;;;1.70;;
15155;SDS011;7678;50.058;8.306;2023-08-31T10:44:21;5.07;;;2.10;;
15155;SDS011;7678;50.058;8.306;2023-08-31T10:46:50;4.57;;;2.40;;
15155;SDS011;7678;50.058;8.306;2023-08-31T10:49:20;4.97;;;1.80;;
15155;SDS011;7678;50.058;8.306;2023-08-31T10:51:53;6.00;;;1.80;;
15155;SDS011;7678;50.058;8.306;2023-08-31T10:54:23;5.17;;;1.93;;
15155;SDS011;7678;50.058;8.306;2023-08-31T10:57:02;4.10;;;1.93;;
15155;SDS011;7678;50.058;8.306;2023-08-31T10:59:42;4.33;;;1.70;;
15155;SDS011;7678;50.058;8.306;2023-08-31T11:02:27;2.70;;;1.60;;
15155;SDS011;7678;50.058;8.306;2023-08-31T11:04:59;4.00;;;1.73;;
15155;SDS011;7678;50.058;8.306;2023-08-31T11:07:31;7.07;;;1.97;;
15155;SDS011;7678;50.058;8.306;2023-08-31T11:10:10;4.60;;;1.93;;
15155;SDS011;7678;50.058;8.306;2023-08-31T11:12:40;4.60;;;1.77;;
15155;SDS011;7678;50.058;8.306;2023-08-31T11:15:10;2.87;;;1.67;;
15155;SDS011;7678;50.058;8.306;2023-08-31T11:17:42;5.47;;;1.70;;
15155;SDS011;7678;50.058;8.306;2023-08-31T11:20:13;2.70;;;1.60;;
15155;SDS011;7678;50.058;8.306;2023-08-31T11:22:45;3.20;;;1.63;;
15155;SDS011;7678;50.058;8.306;2023-08-31T11:25:17;5.10;;;1.93;;
15155;SDS011;7678;50.058;8.306;2023-08-31T11:27:52;3.93;;;1.70;;
15155;SDS011;7678;50.058;8.306;2023-08-31T11:30:21;3.33;;;1.70;;
15155;SDS011;7678;50.058;8.306;2023-08-31T11:32:50;4.40;;;1.83;;
15155;SDS011;7678;50.058;8.306;2023-08-31T11:35:19;8.23;;;2.33;;
15155;SDS011;7678;50.058;8.306;2023-08-31T11:37:51;5.03;;;2.03;;
15155;SDS011;7678;50.058;8.306;2023-08-31T11:40:19;3.83;;;1.93;;
15155;SDS011;7678;50.058;8.306;2023-08-31T11:42:48;4.80;;;1.83;;
15155;SDS011;7678;50.058;8.306;2023-08-31T11:45:16;3.90;;;1.50;;
15155;SDS011;7678;50.058;8.306;2023-08-31T11:47:45;3.73;;;1.70;;
15155;SDS011;7678;50.058;8.306;2023-08-31T11:50:16;4.67;;;1.77;;
15155;SDS011;7678;50.058;8.306;2023-08-31T11:52:45;3.47;;;1.50;;
15155;SDS011;7678;50.058;8.306;2023-08-31T11:55:15;2.63;;;1.50;;
15155;SDS011;7678;50.058;8.306;2023-08-31T11:57:48;2.73;;;1.57;;
15155;SDS011;7678;50.058;8.306;2023-08-31T12:00:17;5.63;;;1.80;;
15155;SDS011;7678;50.058;8.306;2023-08-31T12:02:53;5.10;;;2.00;;
15155;SDS011;7678;50.058;8.306;2023-08-31T12:05:23;5.37;;;2.00;;
15155;SDS011;7678;50.058;8.306;2023-08-31T12:07:52;2.63;;;1.60;;
15155;SDS011;7678;50.058;8.306;2023-08-31T12:10:24;4.53;;;1.80;;
15155;SDS011;7678;50.058;8.306;2023-08-31T12:12:53;6.63;;;2.03;;
15155;SDS011;7678;50.058;8.306;2023-08-31T12:15:22;2.57;;;1.30;;
15155;SDS011;7678;50.058;8.306;2023-08-31T12:17:57;2.57;;;1.40;;
15155;SDS011;7678;50.058;8.306;2023-08-31T12:20:25;6.83;;;1.90;;
15155;SDS011;7678;50.058;8.306;2023-08-31T12:22:54;4.10;;;1.97;;
15155;SDS011;7678;50.058;8.306;2023-08-31T12:25:26;3.23;;;1.60;;
15155;SDS011;7678;50.058;8.306;2023-08-31T12:27:55;3.43;;;1.50;;
15155;SDS011;7678;50.058;8.306;2023-08-31T12:30:23;5.03;;;1.90;;
15155;SDS011;7678;50.058;8.306;2023-08-31T12:32:52;3.80;;;2.17;;
15155;SDS011;7678;50.058;8.306;2023-08-31T12:35:20;8.20;;;2.27;;
15155;SDS011;7678;50.058;8.306;2023-08-31T12:37:48;6.10;;;2.00;;
15155;SDS011;7678;50.058;8.306;2023-08-31T12:40:16;6.47;;;2.10;;
15155;SDS011;7678;50.058;8.306;2023-08-31T12:42:47;3.20;;;1.80;;
15155;SDS011;7678;50.058;8.306;2023-08-31T12:45:18;3.57;;;1.70;;
15155;SDS011;7678;50.058;8.306;2023-08-31T12:47:47;6.53;;;1.90;;
15155;SDS011;7678;50.058;8.306;2023-08-31T12:50:15;2.97;;;1.73;;
15155;SDS011;7678;50.058;8.306;2023-08-31T12:52:46;3.13;;;1.63;;
15155;SDS011;7678;50.058;8.306;2023-08-31T12:55:14;5.47;;;1.90;;
15155;SDS011;7678;50.058;8.306;2023-08-31T12:57:43;3.93;;;1.90;;
15155;SDS011;7678;50.058;8.306;2023-08-31T13:00:14;2.53;;;1.50;;
15155;SDS011;7678;50.058;8.306;2023-08-31T13:02:43;4.63;;;2.10;;
15155;SDS011;7678;50.058;8.306;2023-08-31T13:05:11;6.83;;;2.07;;
15155;SDS011;7678;50.058;8.306;2023-08-31T13:07:40;5.03;;;1.80;;
15155;SDS011;7678;50.058;8.306;2023-08-31T13:10:08;3.47;;;1.70;;
15155;SDS011;7678;50.058;8.306;2023-08-31T13:12:36;3.47;;;1.67;;
15155;SDS011;7678;50.058;8.306;2023-08-31T13:15:05;4.83;;;2.00;;
15155;SDS011;7678;50.058;8.306;2023-08-31T13:17:36;2.73;;;1.80;;
15155;SDS011;7678;50.058;8.306;2023-08-31T13:20:04;4.50;;;2.20;;
15155;SDS011;7678;50.058;8.306;2023-08-31T13:22:34;6.10;;;2.00;;
15155;SDS011;7678;50.058;8.306;2023-08-31T13:25:04;11.57;;;2.30;;
15155;SDS011;7678;50.058;8.306;2023-08-31T13:27:32;4.70;;;1.83;;
15155;SDS011;7678;50.058;8.306;2023-08-31T13:30:00;3.13;;;1.53;;
15155;SDS011;7678;50.058;8.306;2023-08-31T13:32:32;3.70;;;1.70;;
15155;SDS011;7678;50.058;8.306;2023-08-31T13:35:02;5.63;;;2.00;;
15155;SDS011;7678;50.058;8.306;2023-08-31T13:37:34;2.03;;;1.73;;
15155;SDS011;7678;50.058;8.306;2023-08-31T13:40:02;3.07;;;1.90;;
15155;SDS011;7678;50.058;8.306;2023-08-31T13:42:33;3.53;;;2.00;;
15155;SDS011;7678;50.058;8.306;2023-08-31T13:45:06;4.73;;;2.03;;
15155;SDS011;7678;50.058;8.306;2023-08-31T13:47:35;4.83;;;2.00;;
15155;SDS011;7678;50.058;8.306;2023-08-31T13:50:06;3.47;;;1.70;;
15155;SDS011;7678;50.058;8.306;2023-08-31T13:52:34;3.40;;;2.10;;
15155;SDS011;7678;50.058;8.306;2023-08-31T13:55:02;6.13;;;2.10;;
15155;SDS011;7678;50.058;8.306;2023-08-31T13:57:31;7.07;;;1.90;;
15155;SDS011;7678;50.058;8.306;2023-08-31T13:59:59;6.30;;;1.90;;
15155;SDS011;7678;50.058;8.306;2023-08-31T14:02:27;5.10;;;2.10;;
15155;SDS011;7678;50.058;8.306;2023-08-31T14:04:55;5.03;;;2.30;;
15155;SDS011;7678;50.058;8.306;2023-08-31T14:07:25;6.23;;;2.30;;
15155;SDS011;7678;50.058;8.306;2023-08-31T14:09:53;10.60;;;2.40;;
15155;SDS011;7678;50.058;8.306;2023-08-31T14:12:21;5.93;;;2.00;;
15155;SDS011;7678;50.058;8.306;2023-08-31T14:14:51;4.10;;;2.07;;
15155;SDS011;7678;50.058;8.306;2023-08-31T14:17:22;4.20;;;2.00;;
15155;SDS011;7678;50.058;8.306;2023-08-31T14:19:50;8.40;;;2.10;;
15155;SDS011;7678;50.058;8.306;2023-08-31T14:22:18;4.97;;;1.77;;
15155;SDS011;7678;50.058;8.306;2023-08-31T14:24:47;6.03;;;2.10;;
15155;SDS011;7678;50.058;8.306;2023-08-31T14:27:16;4.23;;;2.00;;
15155;SDS011;7678;50.058;8.306;2023-08-31T14:29:44;6.30;;;2.37;;
15155;SDS011;7678;50.058;8.306;2023-08-31T14:32:12;5.60;;;2.27;;
15155;SDS011;7678;50.058;8.306;2023-08-31T14:34:40;5.93;;;2.20;;
15155;SDS011;7678;50.058;8.306;2023-08-31T14:37:08;3.23;;;1.90;;
15155;SDS011;7678;50.058;8.306;2023-08-31T14:39:36;5.20;;;2.17;;
15155;SDS011;7678;50.058;8.306;2023-08-31T14:42:06;4.93;;;1.80;;
15155;SDS011;7678;50.058;8.306;2023-08-31T14:44:36;4.33;;;1.93;;
15155;SDS011;7678;50.058;8.306;2023-08-31T14:47:04;7.43;;;2.47;;
15155;SDS011;7678;50.058;8.306;2023-08-31T14:49:32;6.67;;;2.10;;
15155;SDS011;7678;50.058;8.306;2023-08-31T14:52:00;9.67;;;2.20;;
15155;SDS011;7678;50.058;8.306;2023-08-31T14:54:31;4.10;;;2.00;;
15155;SDS011;7678;50.058;8.306;2023-08-31T14:57:00;5.53;;;2.10;;
15155;SDS011;7678;50.058;8.306;2023-08-31T14:59:31;5.10;;;2.10;;
15155;SDS011;7678;50.058;8.306;2023-08-31T15:01:59;5.87;;;2.00;;
15155;SDS011;7678;50.058;8.306;2023-08-31T15:04:32;9.10;;;2.37;;
15155;SDS011;7678;50.058;8.306;2023-08-31T15:07:00;6.47;;;2.13;;
15155;SDS011;7678;50.058;8.306;2023-08-31T15:09:28;8.60;;;2.17;;
15155;SDS011;7678;50.058;8.306;2023-08-31T15:11:57;5.77;;;2.17;;
15155;SDS011;7678;50.058;8.306;2023-08-31T15:14:25;6.30;;;2.00;;